KOMH

Details ICAO KOMH
Name ORANGE CO
Region United States
Timezone America/New_York (UTC-5.0)
Plans Departing 0
Arriving 1
Stats Elevation 465 ft / 142 m (AMSL)
Location 38.247205° -78.045622°
Runways 1
Magnetic Variation 10.092° W
Sunrise 2017-12-16 12:23:55 UTC / 2017-12-16 07:23:55 Local
Sunset 2017-12-16 21:54:41 UTC / 2017-12-16 16:54:41 Local
Advertisement - Login to hide

Runways

ID Width Length Bearing (true) Bearing (mag) Surface Threshold Offset Overrun Length
07 75 ft / 23 m 3,193 ft / 973 m 65.72° 75.81° Asphalt 0 ft / 0 m 0 ft / 0 m
25 75 ft / 23 m 3,193 ft / 973 m 245.73° 255.82° Asphalt 0 ft / 0 m 0 ft / 0 m

Map

Weather


0- 5 10 15 20 25 30 35+ Temperature / ° C

Clouds and Precipitation
Forecast for 2017-12-17 00:00 UTC. Updated 2 hours ago

Ground ~20,000 ft ~40,000 ft Winds

METAR

KOMH 162235Z AUTO 00000KT 10SM CLR 05/M05 A3011 RMK AO2

TAF

Not found

Frequencies

Recorded 118.07 MHz AWOS 3
Approach 132.85 MHz POTOMAC APP/DEP
Unicom 122.80 MHz CTAF/UNICOM
Warning: Do not use this data for real-world aviation or navigation. No guarantee of current accuracy is given.